<?xml version="1.0" encoding="UTF-8" standalone="no" ?>
<gpx xmlns="http://www.topografix.com/GPX/1/1" xmlns:xsi="http://www.w3.org/2001/XMLSchema-instance" xsi:schemaLocation="http://www.topografix.com/GPX/1/1 http://www.topografix.com/GPX/1/1/gpx.xsd" version="1.1" creator="VisuGPX - https://www.visugpx.com">
  <metadata>
    <name>Balade à Vimy - 06/05/2016</name>
    <desc><![CDATA[Balade à Vimy - 06/05/2016]]></desc>
  </metadata>
  <trk>
    <name><![CDATA[2016-05-06 14:51:52]]></name>
    <trkseg>
      <trkpt lat="50.36746" lon="2.78916">
        <ele>133.76</ele>
        <time>2016-05-06T11:57:09Z</time>
      </trkpt>
      <trkpt lat="50.36746" lon="2.78916">
        <ele>133.76</ele>
        <time>2016-05-06T11:57:10Z</time>
      </trkpt>
      <trkpt lat="50.36746" lon="2.78918">
        <ele>133.76</ele>
        <time>2016-05-06T11:57:35Z</time>
      </trkpt>
      <trkpt lat="50.36747" lon="2.78919">
        <ele>133.76</ele>
        <time>2016-05-06T11:58:05Z</time>
      </trkpt>
      <trkpt lat="50.36746" lon="2.78924">
        <ele>133.28</ele>
        <time>2016-05-06T11:58:20Z</time>
      </trkpt>
      <trkpt lat="50.36752" lon="2.78922">
        <ele>133.28</ele>
        <time>2016-05-06T11:58:29Z</time>
      </trkpt>
      <trkpt lat="50.3676" lon="2.78915">
        <ele>133.28</ele>
        <time>2016-05-06T11:58:35Z</time>
      </trkpt>
      <trkpt lat="50.36764" lon="2.78917">
        <ele>133.28</ele>
        <time>2016-05-06T11:58:39Z</time>
      </trkpt>
      <trkpt lat="50.36775" lon="2.78933">
        <ele>133.28</ele>
        <time>2016-05-06T11:58:52Z</time>
      </trkpt>
      <trkpt lat="50.36776" lon="2.78934">
        <ele>133.28</ele>
        <time>2016-05-06T11:58:53Z</time>
      </trkpt>
      <trkpt lat="50.36783" lon="2.78941">
        <ele>134.24</ele>
        <time>2016-05-06T11:59:03Z</time>
      </trkpt>
      <trkpt lat="50.36792" lon="2.78955">
        <ele>134.24</ele>
        <time>2016-05-06T11:59:24Z</time>
      </trkpt>
      <trkpt lat="50.3681" lon="2.78978">
        <ele>134.24</ele>
        <time>2016-05-06T11:59:39Z</time>
      </trkpt>
      <trkpt lat="50.3683" lon="2.78999">
        <ele>133.28</ele>
        <time>2016-05-06T11:59:54Z</time>
      </trkpt>
      <trkpt lat="50.36846" lon="2.7901">
        <ele>132.8</ele>
        <time>2016-05-06T12:00:06Z</time>
      </trkpt>
      <trkpt lat="50.36857" lon="2.79018">
        <ele>132.8</ele>
        <time>2016-05-06T12:00:15Z</time>
      </trkpt>
      <trkpt lat="50.36873" lon="2.79027">
        <ele>132.32</ele>
        <time>2016-05-06T12:00:29Z</time>
      </trkpt>
      <trkpt lat="50.36875" lon="2.79028">
        <ele>131.84</ele>
        <time>2016-05-06T12:00:30Z</time>
      </trkpt>
      <trkpt lat="50.36891" lon="2.79043">
        <ele>131.36</ele>
        <time>2016-05-06T12:00:42Z</time>
      </trkpt>
      <trkpt lat="50.36916" lon="2.79061">
        <ele>131.36</ele>
        <time>2016-05-06T12:01:00Z</time>
      </trkpt>
      <trkpt lat="50.36925" lon="2.79067">
        <ele>130.88</ele>
        <time>2016-05-06T12:01:11Z</time>
      </trkpt>
      <trkpt lat="50.36937" lon="2.79086">
        <ele>128.47</ele>
        <time>2016-05-06T12:01:26Z</time>
      </trkpt>
      <trkpt lat="50.36953" lon="2.791">
        <ele>127.51</ele>
        <time>2016-05-06T12:01:40Z</time>
      </trkpt>
      <trkpt lat="50.36977" lon="2.79108">
        <ele>125.59</ele>
        <time>2016-05-06T12:01:55Z</time>
      </trkpt>
      <trkpt lat="50.36994" lon="2.79116">
        <ele>124.15</ele>
        <time>2016-05-06T12:02:07Z</time>
      </trkpt>
      <trkpt lat="50.37004" lon="2.79123">
        <ele>123.19</ele>
        <time>2016-05-06T12:02:15Z</time>
      </trkpt>
      <trkpt lat="50.37008" lon="2.79125">
        <ele>123.19</ele>
        <time>2016-05-06T12:02:17Z</time>
      </trkpt>
      <trkpt lat="50.37012" lon="2.79128">
        <ele>120.78</ele>
        <time>2016-05-06T12:02:21Z</time>
      </trkpt>
      <trkpt lat="50.37031" lon="2.79136">
        <ele>120.78</ele>
        <time>2016-05-06T12:02:34Z</time>
      </trkpt>
      <trkpt lat="50.37061" lon="2.79144">
        <ele>118.38</ele>
        <time>2016-05-06T12:02:53Z</time>
      </trkpt>
      <trkpt lat="50.37071" lon="2.79143">
        <ele>118.86</ele>
        <time>2016-05-06T12:03:03Z</time>
      </trkpt>
      <trkpt lat="50.37078" lon="2.79139">
        <ele>118.86</ele>
        <time>2016-05-06T12:03:15Z</time>
      </trkpt>
      <trkpt lat="50.37084" lon="2.79124">
        <ele>119.82</ele>
        <time>2016-05-06T12:03:30Z</time>
      </trkpt>
      <trkpt lat="50.37091" lon="2.79119">
        <ele>119.82</ele>
        <time>2016-05-06T12:03:42Z</time>
      </trkpt>
      <trkpt lat="50.37096" lon="2.7912">
        <ele>118.38</ele>
        <time>2016-05-06T12:03:47Z</time>
      </trkpt>
      <trkpt lat="50.37111" lon="2.79117">
        <ele>117.42</ele>
        <time>2016-05-06T12:04:01Z</time>
      </trkpt>
      <trkpt lat="50.37124" lon="2.79098">
        <ele>115.01</ele>
        <time>2016-05-06T12:04:15Z</time>
      </trkpt>
      <trkpt lat="50.37119" lon="2.79081">
        <ele>116.94</ele>
        <time>2016-05-06T12:04:28Z</time>
      </trkpt>
      <trkpt lat="50.37116" lon="2.79066">
        <ele>118.86</ele>
        <time>2016-05-06T12:04:42Z</time>
      </trkpt>
      <trkpt lat="50.37119" lon="2.7906">
        <ele>119.34</ele>
        <time>2016-05-06T12:04:54Z</time>
      </trkpt>
      <trkpt lat="50.37124" lon="2.79065">
        <ele>119.34</ele>
        <time>2016-05-06T12:05:20Z</time>
      </trkpt>
      <trkpt lat="50.37123" lon="2.79065">
        <ele>119.34</ele>
        <time>2016-05-06T12:05:35Z</time>
      </trkpt>
      <trkpt lat="50.3712" lon="2.79069">
        <ele>119.34</ele>
        <time>2016-05-06T12:05:57Z</time>
      </trkpt>
      <trkpt lat="50.37118" lon="2.79066">
        <ele>119.82</ele>
        <time>2016-05-06T12:06:20Z</time>
      </trkpt>
      <trkpt lat="50.3712" lon="2.79065">
        <ele>119.82</ele>
        <time>2016-05-06T12:06:47Z</time>
      </trkpt>
      <trkpt lat="50.37123" lon="2.79068">
        <ele>119.82</ele>
        <time>2016-05-06T12:07:01Z</time>
      </trkpt>
      <trkpt lat="50.37129" lon="2.7907">
        <ele>119.82</ele>
        <time>2016-05-06T12:07:24Z</time>
      </trkpt>
      <trkpt lat="50.37126" lon="2.79066">
        <ele>119.82</ele>
        <time>2016-05-06T12:07:44Z</time>
      </trkpt>
      <trkpt lat="50.37126" lon="2.79061">
        <ele>120.78</ele>
        <time>2016-05-06T12:07:59Z</time>
      </trkpt>
      <trkpt lat="50.37133" lon="2.79059">
        <ele>121.26</ele>
        <time>2016-05-06T12:08:27Z</time>
      </trkpt>
      <trkpt lat="50.37126" lon="2.79068">
        <ele>118.86</ele>
        <time>2016-05-06T12:08:39Z</time>
      </trkpt>
      <trkpt lat="50.37126" lon="2.79079">
        <ele>117.42</ele>
        <time>2016-05-06T12:08:48Z</time>
      </trkpt>
      <trkpt lat="50.3713" lon="2.79086">
        <ele>116.46</ele>
        <time>2016-05-06T12:08:53Z</time>
      </trkpt>
      <trkpt lat="50.37131" lon="2.79093">
        <ele>115.98</ele>
        <time>2016-05-06T12:08:57Z</time>
      </trkpt>
      <trkpt lat="50.3713" lon="2.79106">
        <ele>117.42</ele>
        <time>2016-05-06T12:09:06Z</time>
      </trkpt>
      <trkpt lat="50.37119" lon="2.79113">
        <ele>118.86</ele>
        <time>2016-05-06T12:09:17Z</time>
      </trkpt>
      <trkpt lat="50.37111" lon="2.79125">
        <ele>119.34</ele>
        <time>2016-05-06T12:09:31Z</time>
      </trkpt>
      <trkpt lat="50.37101" lon="2.79131">
        <ele>119.82</ele>
        <time>2016-05-06T12:09:43Z</time>
      </trkpt>
      <trkpt lat="50.37087" lon="2.79139">
        <ele>120.3</ele>
        <time>2016-05-06T12:09:56Z</time>
      </trkpt>
      <trkpt lat="50.37083" lon="2.79142">
        <ele>118.86</ele>
        <time>2016-05-06T12:09:59Z</time>
      </trkpt>
      <trkpt lat="50.37077" lon="2.79141">
        <ele>118.86</ele>
        <time>2016-05-06T12:10:04Z</time>
      </trkpt>
      <trkpt lat="50.37072" lon="2.7914">
        <ele>120.3</ele>
        <time>2016-05-06T12:10:07Z</time>
      </trkpt>
      <trkpt lat="50.37057" lon="2.79138">
        <ele>121.74</ele>
        <time>2016-05-06T12:10:19Z</time>
      </trkpt>
      <trkpt lat="50.3704" lon="2.79135">
        <ele>123.19</ele>
        <time>2016-05-06T12:10:33Z</time>
      </trkpt>
      <trkpt lat="50.37024" lon="2.79124">
        <ele>124.15</ele>
        <time>2016-05-06T12:10:47Z</time>
      </trkpt>
      <trkpt lat="50.37011" lon="2.79118">
        <ele>125.59</ele>
        <time>2016-05-06T12:10:57Z</time>
      </trkpt>
      <trkpt lat="50.36984" lon="2.79108">
        <ele>127.03</ele>
        <time>2016-05-06T12:11:14Z</time>
      </trkpt>
      <trkpt lat="50.36982" lon="2.79106">
        <ele>127.51</ele>
        <time>2016-05-06T12:11:16Z</time>
      </trkpt>
      <trkpt lat="50.36959" lon="2.79102">
        <ele>128.95</ele>
        <time>2016-05-06T12:11:32Z</time>
      </trkpt>
      <trkpt lat="50.36956" lon="2.79102">
        <ele>128.95</ele>
        <time>2016-05-06T12:11:35Z</time>
      </trkpt>
      <trkpt lat="50.36936" lon="2.79086">
        <ele>130.88</ele>
        <time>2016-05-06T12:11:52Z</time>
      </trkpt>
      <trkpt lat="50.36912" lon="2.79058">
        <ele>132.32</ele>
        <time>2016-05-06T12:12:12Z</time>
      </trkpt>
      <trkpt lat="50.36892" lon="2.79039">
        <ele>132.8</ele>
        <time>2016-05-06T12:12:30Z</time>
      </trkpt>
      <trkpt lat="50.36873" lon="2.79024">
        <ele>133.28</ele>
        <time>2016-05-06T12:12:46Z</time>
      </trkpt>
      <trkpt lat="50.36851" lon="2.79009">
        <ele>133.28</ele>
        <time>2016-05-06T12:13:03Z</time>
      </trkpt>
      <trkpt lat="50.36827" lon="2.78997">
        <ele>134.72</ele>
        <time>2016-05-06T12:13:21Z</time>
      </trkpt>
      <trkpt lat="50.36806" lon="2.78979">
        <ele>134.72</ele>
        <time>2016-05-06T12:13:39Z</time>
      </trkpt>
      <trkpt lat="50.3679" lon="2.78954">
        <ele>135.68</ele>
        <time>2016-05-06T12:13:57Z</time>
      </trkpt>
      <trkpt lat="50.36769" lon="2.78921">
        <ele>135.68</ele>
        <time>2016-05-06T12:14:19Z</time>
      </trkpt>
      <trkpt lat="50.36766" lon="2.78915">
        <ele>135.68</ele>
        <time>2016-05-06T12:14:23Z</time>
      </trkpt>
      <trkpt lat="50.36759" lon="2.78904">
        <ele>135.68</ele>
        <time>2016-05-06T12:14:32Z</time>
      </trkpt>
      <trkpt lat="50.36752" lon="2.78868">
        <ele>136.16</ele>
        <time>2016-05-06T12:14:51Z</time>
      </trkpt>
      <trkpt lat="50.36742" lon="2.78845">
        <ele>135.2</ele>
        <time>2016-05-06T12:15:06Z</time>
      </trkpt>
      <trkpt lat="50.36729" lon="2.78819">
        <ele>135.2</ele>
        <time>2016-05-06T12:15:23Z</time>
      </trkpt>
      <trkpt lat="50.36715" lon="2.78788">
        <ele>135.2</ele>
        <time>2016-05-06T12:15:38Z</time>
      </trkpt>
      <trkpt lat="50.36705" lon="2.78761">
        <ele>135.2</ele>
        <time>2016-05-06T12:15:53Z</time>
      </trkpt>
      <trkpt lat="50.36697" lon="2.78725">
        <ele>134.72</ele>
        <time>2016-05-06T12:16:09Z</time>
      </trkpt>
      <trkpt lat="50.36694" lon="2.78698">
        <ele>134.72</ele>
        <time>2016-05-06T12:16:22Z</time>
      </trkpt>
      <trkpt lat="50.36691" lon="2.78663">
        <ele>134.72</ele>
        <time>2016-05-06T12:16:37Z</time>
      </trkpt>
      <trkpt lat="50.3669" lon="2.78637">
        <ele>134.72</ele>
        <time>2016-05-06T12:16:50Z</time>
      </trkpt>
      <trkpt lat="50.36688" lon="2.786">
        <ele>134.72</ele>
        <time>2016-05-06T12:17:05Z</time>
      </trkpt>
      <trkpt lat="50.36684" lon="2.78568">
        <ele>134.24</ele>
        <time>2016-05-06T12:17:18Z</time>
      </trkpt>
      <trkpt lat="50.36683" lon="2.78559">
        <ele>134.24</ele>
        <time>2016-05-06T12:17:22Z</time>
      </trkpt>
      <trkpt lat="50.36681" lon="2.78521">
        <ele>134.24</ele>
        <time>2016-05-06T12:17:39Z</time>
      </trkpt>
      <trkpt lat="50.36681" lon="2.78517">
        <ele>134.24</ele>
        <time>2016-05-06T12:17:41Z</time>
      </trkpt>
      <trkpt lat="50.36675" lon="2.78471">
        <ele>133.76</ele>
        <time>2016-05-06T12:17:57Z</time>
      </trkpt>
      <trkpt lat="50.36672" lon="2.78431">
        <ele>133.76</ele>
        <time>2016-05-06T12:18:13Z</time>
      </trkpt>
      <trkpt lat="50.36671" lon="2.7839">
        <ele>133.76</ele>
        <time>2016-05-06T12:18:30Z</time>
      </trkpt>
      <trkpt lat="50.36677" lon="2.78358">
        <ele>133.76</ele>
        <time>2016-05-06T12:18:45Z</time>
      </trkpt>
      <trkpt lat="50.36683" lon="2.78359">
        <ele>132.8</ele>
        <time>2016-05-06T12:18:50Z</time>
      </trkpt>
      <trkpt lat="50.36686" lon="2.78364">
        <ele>132.8</ele>
        <time>2016-05-06T12:18:54Z</time>
      </trkpt>
      <trkpt lat="50.36696" lon="2.78377">
        <ele>134.24</ele>
        <time>2016-05-06T12:19:05Z</time>
      </trkpt>
      <trkpt lat="50.3671" lon="2.78398">
        <ele>134.72</ele>
        <time>2016-05-06T12:19:20Z</time>
      </trkpt>
      <trkpt lat="50.36728" lon="2.78419">
        <ele>134.72</ele>
        <time>2016-05-06T12:19:36Z</time>
      </trkpt>
      <trkpt lat="50.36731" lon="2.78424">
        <ele>135.2</ele>
        <time>2016-05-06T12:19:42Z</time>
      </trkpt>
      <trkpt lat="50.36732" lon="2.78423">
        <ele>135.2</ele>
        <time>2016-05-06T12:19:50Z</time>
      </trkpt>
      <trkpt lat="50.36731" lon="2.78421">
        <ele>135.2</ele>
        <time>2016-05-06T12:19:53Z</time>
      </trkpt>
      <trkpt lat="50.36727" lon="2.78415">
        <ele>135.2</ele>
        <time>2016-05-06T12:19:59Z</time>
      </trkpt>
      <trkpt lat="50.36718" lon="2.78409">
        <ele>133.76</ele>
        <time>2016-05-06T12:20:07Z</time>
      </trkpt>
      <trkpt lat="50.36708" lon="2.78401">
        <ele>133.76</ele>
        <time>2016-05-06T12:20:17Z</time>
      </trkpt>
      <trkpt lat="50.36701" lon="2.78389">
        <ele>133.76</ele>
        <time>2016-05-06T12:20:25Z</time>
      </trkpt>
      <trkpt lat="50.36693" lon="2.78376">
        <ele>132.8</ele>
        <time>2016-05-06T12:20:33Z</time>
      </trkpt>
      <trkpt lat="50.36689" lon="2.78367">
        <ele>132.8</ele>
        <time>2016-05-06T12:20:37Z</time>
      </trkpt>
      <trkpt lat="50.36686" lon="2.78353">
        <ele>133.76</ele>
        <time>2016-05-06T12:20:44Z</time>
      </trkpt>
      <trkpt lat="50.36687" lon="2.78348">
        <ele>133.76</ele>
        <time>2016-05-06T12:20:46Z</time>
      </trkpt>
      <trkpt lat="50.36701" lon="2.78328">
        <ele>133.76</ele>
        <time>2016-05-06T12:21:00Z</time>
      </trkpt>
      <trkpt lat="50.3672" lon="2.78317">
        <ele>134.24</ele>
        <time>2016-05-06T12:21:13Z</time>
      </trkpt>
      <trkpt lat="50.36743" lon="2.78305">
        <ele>134.24</ele>
        <time>2016-05-06T12:21:28Z</time>
      </trkpt>
      <trkpt lat="50.36771" lon="2.78293">
        <ele>134.24</ele>
        <time>2016-05-06T12:21:46Z</time>
      </trkpt>
      <trkpt lat="50.36797" lon="2.78282">
        <ele>134.72</ele>
        <time>2016-05-06T12:22:04Z</time>
      </trkpt>
      <trkpt lat="50.36817" lon="2.78272">
        <ele>135.2</ele>
        <time>2016-05-06T12:22:21Z</time>
      </trkpt>
      <trkpt lat="50.36836" lon="2.78263">
        <ele>135.68</ele>
        <time>2016-05-06T12:22:36Z</time>
      </trkpt>
      <trkpt lat="50.36845" lon="2.78264">
        <ele>135.68</ele>
        <time>2016-05-06T12:22:44Z</time>
      </trkpt>
      <trkpt lat="50.36865" lon="2.78284">
        <ele>135.68</ele>
        <time>2016-05-06T12:23:00Z</time>
      </trkpt>
      <trkpt lat="50.36881" lon="2.78303">
        <ele>136.64</ele>
        <time>2016-05-06T12:23:15Z</time>
      </trkpt>
      <trkpt lat="50.36897" lon="2.78328">
        <ele>136.64</ele>
        <time>2016-05-06T12:23:31Z</time>
      </trkpt>
      <trkpt lat="50.36898" lon="2.78368">
        <ele>137.13</ele>
        <time>2016-05-06T12:23:48Z</time>
      </trkpt>
      <trkpt lat="50.36897" lon="2.7838">
        <ele>137.13</ele>
        <time>2016-05-06T12:23:55Z</time>
      </trkpt>
      <trkpt lat="50.36892" lon="2.78406">
        <ele>137.13</ele>
        <time>2016-05-06T12:24:11Z</time>
      </trkpt>
      <trkpt lat="50.36894" lon="2.78414">
        <ele>137.13</ele>
        <time>2016-05-06T12:24:25Z</time>
      </trkpt>
      <trkpt lat="50.36893" lon="2.78413">
        <ele>137.13</ele>
        <time>2016-05-06T12:24:45Z</time>
      </trkpt>
      <trkpt lat="50.36894" lon="2.78417">
        <ele>137.13</ele>
        <time>2016-05-06T12:25:05Z</time>
      </trkpt>
      <trkpt lat="50.36892" lon="2.78415">
        <ele>137.13</ele>
        <time>2016-05-06T12:25:18Z</time>
      </trkpt>
      <trkpt lat="50.36895" lon="2.78415">
        <ele>137.13</ele>
        <time>2016-05-06T12:25:45Z</time>
      </trkpt>
      <trkpt lat="50.36894" lon="2.78419">
        <ele>138.09</ele>
        <time>2016-05-06T12:26:05Z</time>
      </trkpt>
      <trkpt lat="50.36891" lon="2.78419">
        <ele>138.09</ele>
        <time>2016-05-06T12:26:30Z</time>
      </trkpt>
      <trkpt lat="50.36892" lon="2.7842">
        <ele>138.09</ele>
        <time>2016-05-06T12:26:59Z</time>
      </trkpt>
      <trkpt lat="50.36893" lon="2.78419">
        <ele>138.57</ele>
        <time>2016-05-06T12:27:29Z</time>
      </trkpt>
      <trkpt lat="50.36891" lon="2.78416">
        <ele>139.05</ele>
        <time>2016-05-06T12:28:02Z</time>
      </trkpt>
      <trkpt lat="50.36892" lon="2.78422">
        <ele>139.05</ele>
        <time>2016-05-06T12:28:22Z</time>
      </trkpt>
      <trkpt lat="50.36895" lon="2.78426">
        <ele>139.05</ele>
        <time>2016-05-06T12:28:58Z</time>
      </trkpt>
      <trkpt lat="50.36893" lon="2.78424">
        <ele>139.05</ele>
        <time>2016-05-06T12:29:24Z</time>
      </trkpt>
      <trkpt lat="50.36893" lon="2.78408">
        <ele>139.05</ele>
        <time>2016-05-06T12:29:51Z</time>
      </trkpt>
      <trkpt lat="50.36895" lon="2.78395">
        <ele>139.53</ele>
        <time>2016-05-06T12:30:00Z</time>
      </trkpt>
      <trkpt lat="50.369" lon="2.78377">
        <ele>139.53</ele>
        <time>2016-05-06T12:30:11Z</time>
      </trkpt>
      <trkpt lat="50.36902" lon="2.78345">
        <ele>139.53</ele>
        <time>2016-05-06T12:30:24Z</time>
      </trkpt>
      <trkpt lat="50.36901" lon="2.78339">
        <ele>139.53</ele>
        <time>2016-05-06T12:30:27Z</time>
      </trkpt>
      <trkpt lat="50.36888" lon="2.78319">
        <ele>138.09</ele>
        <time>2016-05-06T12:30:44Z</time>
      </trkpt>
      <trkpt lat="50.36882" lon="2.7831">
        <ele>138.09</ele>
        <time>2016-05-06T12:30:52Z</time>
      </trkpt>
      <trkpt lat="50.36869" lon="2.7829">
        <ele>137.61</ele>
        <time>2016-05-06T12:31:03Z</time>
      </trkpt>
      <trkpt lat="50.3685" lon="2.78266">
        <ele>137.13</ele>
        <time>2016-05-06T12:31:18Z</time>
      </trkpt>
      <trkpt lat="50.36846" lon="2.78267">
        <ele>137.13</ele>
        <time>2016-05-06T12:31:21Z</time>
      </trkpt>
      <trkpt lat="50.3684" lon="2.78268">
        <ele>137.13</ele>
        <time>2016-05-06T12:31:26Z</time>
      </trkpt>
      <trkpt lat="50.36829" lon="2.78271">
        <ele>137.13</ele>
        <time>2016-05-06T12:31:34Z</time>
      </trkpt>
      <trkpt lat="50.36803" lon="2.78282">
        <ele>136.64</ele>
        <time>2016-05-06T12:31:50Z</time>
      </trkpt>
      <trkpt lat="50.36782" lon="2.78289">
        <ele>136.64</ele>
        <time>2016-05-06T12:32:03Z</time>
      </trkpt>
      <trkpt lat="50.36759" lon="2.78297">
        <ele>136.16</ele>
        <time>2016-05-06T12:32:17Z</time>
      </trkpt>
      <trkpt lat="50.36743" lon="2.78304">
        <ele>135.68</ele>
        <time>2016-05-06T12:32:30Z</time>
      </trkpt>
      <trkpt lat="50.36718" lon="2.78315">
        <ele>134.72</ele>
        <time>2016-05-06T12:32:48Z</time>
      </trkpt>
      <trkpt lat="50.36698" lon="2.78328">
        <ele>134.72</ele>
        <time>2016-05-06T12:33:02Z</time>
      </trkpt>
      <trkpt lat="50.3669" lon="2.78338">
        <ele>134.72</ele>
        <time>2016-05-06T12:33:10Z</time>
      </trkpt>
      <trkpt lat="50.36681" lon="2.78337">
        <ele>134.72</ele>
        <time>2016-05-06T12:33:16Z</time>
      </trkpt>
      <trkpt lat="50.36675" lon="2.78342">
        <ele>134.72</ele>
        <time>2016-05-06T12:33:21Z</time>
      </trkpt>
      <trkpt lat="50.36668" lon="2.78325">
        <ele>134.72</ele>
        <time>2016-05-06T12:33:33Z</time>
      </trkpt>
      <trkpt lat="50.36666" lon="2.78323">
        <ele>134.72</ele>
        <time>2016-05-06T12:33:40Z</time>
      </trkpt>
      <trkpt lat="50.36659" lon="2.783">
        <ele>134.72</ele>
        <time>2016-05-06T12:33:53Z</time>
      </trkpt>
      <trkpt lat="50.3665" lon="2.78268">
        <ele>134.24</ele>
        <time>2016-05-06T12:34:08Z</time>
      </trkpt>
      <trkpt lat="50.36643" lon="2.78241">
        <ele>134.24</ele>
        <time>2016-05-06T12:34:21Z</time>
      </trkpt>
      <trkpt lat="50.36644" lon="2.78249">
        <ele>134.24</ele>
        <time>2016-05-06T12:34:26Z</time>
      </trkpt>
      <trkpt lat="50.36646" lon="2.78255">
        <ele>133.76</ele>
        <time>2016-05-06T12:34:29Z</time>
      </trkpt>
      <trkpt lat="50.36645" lon="2.78258">
        <ele>134.24</ele>
        <time>2016-05-06T12:34:32Z</time>
      </trkpt>
      <trkpt lat="50.3664" lon="2.78267">
        <ele>134.24</ele>
        <time>2016-05-06T12:34:39Z</time>
      </trkpt>
      <trkpt lat="50.36636" lon="2.78276">
        <ele>133.76</ele>
        <time>2016-05-06T12:34:46Z</time>
      </trkpt>
      <trkpt lat="50.36634" lon="2.78278">
        <ele>133.28</ele>
        <time>2016-05-06T12:34:48Z</time>
      </trkpt>
      <trkpt lat="50.36627" lon="2.78284">
        <ele>133.28</ele>
        <time>2016-05-06T12:35:00Z</time>
      </trkpt>
      <trkpt lat="50.36621" lon="2.78292">
        <ele>132.8</ele>
        <time>2016-05-06T12:35:13Z</time>
      </trkpt>
      <trkpt lat="50.36617" lon="2.78295">
        <ele>132.8</ele>
        <time>2016-05-06T12:35:17Z</time>
      </trkpt>
      <trkpt lat="50.36605" lon="2.78307">
        <ele>132.32</ele>
        <time>2016-05-06T12:35:30Z</time>
      </trkpt>
      <trkpt lat="50.36599" lon="2.78314">
        <ele>132.32</ele>
        <time>2016-05-06T12:35:37Z</time>
      </trkpt>
      <trkpt lat="50.36588" lon="2.78325">
        <ele>132.8</ele>
        <time>2016-05-06T12:35:49Z</time>
      </trkpt>
      <trkpt lat="50.36583" lon="2.7833">
        <ele>132.8</ele>
        <time>2016-05-06T12:35:54Z</time>
      </trkpt>
      <trkpt lat="50.36571" lon="2.78343">
        <ele>132.8</ele>
        <time>2016-05-06T12:36:09Z</time>
      </trkpt>
      <trkpt lat="50.36557" lon="2.78358">
        <ele>132.8</ele>
        <time>2016-05-06T12:36:23Z</time>
      </trkpt>
      <trkpt lat="50.36542" lon="2.78377">
        <ele>132.32</ele>
        <time>2016-05-06T12:36:39Z</time>
      </trkpt>
      <trkpt lat="50.36531" lon="2.78378">
        <ele>132.32</ele>
        <time>2016-05-06T12:36:52Z</time>
      </trkpt>
      <trkpt lat="50.36517" lon="2.78377">
        <ele>131.84</ele>
        <time>2016-05-06T12:37:05Z</time>
      </trkpt>
      <trkpt lat="50.36501" lon="2.78371">
        <ele>131.36</ele>
        <time>2016-05-06T12:37:20Z</time>
      </trkpt>
      <trkpt lat="50.3649" lon="2.78372">
        <ele>130.88</ele>
        <time>2016-05-06T12:37:34Z</time>
      </trkpt>
      <trkpt lat="50.36483" lon="2.78367">
        <ele>130.88</ele>
        <time>2016-05-06T12:37:47Z</time>
      </trkpt>
      <trkpt lat="50.36477" lon="2.78356">
        <ele>130.88</ele>
        <time>2016-05-06T12:38:01Z</time>
      </trkpt>
      <trkpt lat="50.36478" lon="2.78347">
        <ele>130.88</ele>
        <time>2016-05-06T12:38:13Z</time>
      </trkpt>
      <trkpt lat="50.3648" lon="2.78345">
        <ele>130.88</ele>
        <time>2016-05-06T12:38:30Z</time>
      </trkpt>
      <trkpt lat="50.36481" lon="2.78355">
        <ele>130.4</ele>
        <time>2016-05-06T12:38:44Z</time>
      </trkpt>
      <trkpt lat="50.36479" lon="2.78366">
        <ele>130.4</ele>
        <time>2016-05-06T12:38:58Z</time>
      </trkpt>
      <trkpt lat="50.36476" lon="2.78368">
        <ele>130.4</ele>
        <time>2016-05-06T12:39:14Z</time>
      </trkpt>
      <trkpt lat="50.36476" lon="2.78369">
        <ele>130.4</ele>
        <time>2016-05-06T12:39:38Z</time>
      </trkpt>
      <trkpt lat="50.36476" lon="2.78368">
        <ele>130.4</ele>
        <time>2016-05-06T12:39:55Z</time>
      </trkpt>
      <trkpt lat="50.36476" lon="2.78367">
        <ele>130.4</ele>
        <time>2016-05-06T12:40:20Z</time>
      </trkpt>
      <trkpt lat="50.36476" lon="2.78367">
        <ele>132.32</ele>
        <time>2016-05-06T12:40:52Z</time>
      </trkpt>
      <trkpt lat="50.36476" lon="2.78367">
        <ele>130.88</ele>
        <time>2016-05-06T12:40:54Z</time>
      </trkpt>
      <trkpt lat="50.36474" lon="2.78368">
        <ele>130.88</ele>
        <time>2016-05-06T12:41:19Z</time>
      </trkpt>
      <trkpt lat="50.36474" lon="2.78367">
        <ele>130.4</ele>
        <time>2016-05-06T12:41:42Z</time>
      </trkpt>
      <trkpt lat="50.36481" lon="2.7837">
        <ele>132.32</ele>
        <time>2016-05-06T12:42:03Z</time>
      </trkpt>
      <trkpt lat="50.36491" lon="2.7836">
        <ele>131.84</ele>
        <time>2016-05-06T12:42:18Z</time>
      </trkpt>
      <trkpt lat="50.365" lon="2.78348">
        <ele>131.84</ele>
        <time>2016-05-06T12:42:30Z</time>
      </trkpt>
      <trkpt lat="50.36507" lon="2.78341">
        <ele>132.32</ele>
        <time>2016-05-06T12:42:44Z</time>
      </trkpt>
      <trkpt lat="50.36519" lon="2.7833">
        <ele>132.32</ele>
        <time>2016-05-06T12:42:58Z</time>
      </trkpt>
      <trkpt lat="50.36531" lon="2.78321">
        <ele>132.32</ele>
        <time>2016-05-06T12:43:09Z</time>
      </trkpt>
      <trkpt lat="50.36537" lon="2.78312">
        <ele>132.32</ele>
        <time>2016-05-06T12:43:16Z</time>
      </trkpt>
      <trkpt lat="50.36552" lon="2.78294">
        <ele>133.76</ele>
        <time>2016-05-06T12:43:31Z</time>
      </trkpt>
      <trkpt lat="50.36565" lon="2.78287">
        <ele>133.76</ele>
        <time>2016-05-06T12:43:43Z</time>
      </trkpt>
      <trkpt lat="50.36574" lon="2.78277">
        <ele>134.24</ele>
        <time>2016-05-06T12:43:55Z</time>
      </trkpt>
      <trkpt lat="50.36588" lon="2.78259">
        <ele>134.24</ele>
        <time>2016-05-06T12:44:09Z</time>
      </trkpt>
      <trkpt lat="50.366" lon="2.78243">
        <ele>134.24</ele>
        <time>2016-05-06T12:44:21Z</time>
      </trkpt>
      <trkpt lat="50.3661" lon="2.78233">
        <ele>134.24</ele>
        <time>2016-05-06T12:44:29Z</time>
      </trkpt>
      <trkpt lat="50.36625" lon="2.78218">
        <ele>134.24</ele>
        <time>2016-05-06T12:44:39Z</time>
      </trkpt>
      <trkpt lat="50.36629" lon="2.78216">
        <ele>135.2</ele>
        <time>2016-05-06T12:44:43Z</time>
      </trkpt>
      <trkpt lat="50.36641" lon="2.78233">
        <ele>135.68</ele>
        <time>2016-05-06T12:44:56Z</time>
      </trkpt>
      <trkpt lat="50.36642" lon="2.78235">
        <ele>135.68</ele>
        <time>2016-05-06T12:44:57Z</time>
      </trkpt>
      <trkpt lat="50.36649" lon="2.7826">
        <ele>136.16</ele>
        <time>2016-05-06T12:45:11Z</time>
      </trkpt>
      <trkpt lat="50.36656" lon="2.7828">
        <ele>135.68</ele>
        <time>2016-05-06T12:45:23Z</time>
      </trkpt>
      <trkpt lat="50.36659" lon="2.783">
        <ele>136.16</ele>
        <time>2016-05-06T12:45:35Z</time>
      </trkpt>
      <trkpt lat="50.36663" lon="2.78312">
        <ele>136.16</ele>
        <time>2016-05-06T12:45:43Z</time>
      </trkpt>
      <trkpt lat="50.36664" lon="2.78333">
        <ele>136.16</ele>
        <time>2016-05-06T12:45:51Z</time>
      </trkpt>
      <trkpt lat="50.36669" lon="2.78359">
        <ele>137.13</ele>
        <time>2016-05-06T12:46:04Z</time>
      </trkpt>
      <trkpt lat="50.36669" lon="2.78363">
        <ele>137.13</ele>
        <time>2016-05-06T12:46:06Z</time>
      </trkpt>
      <trkpt lat="50.3667" lon="2.78389">
        <ele>136.64</ele>
        <time>2016-05-06T12:46:20Z</time>
      </trkpt>
      <trkpt lat="50.36671" lon="2.78409">
        <ele>136.64</ele>
        <time>2016-05-06T12:46:31Z</time>
      </trkpt>
      <trkpt lat="50.36672" lon="2.78424">
        <ele>136.64</ele>
        <time>2016-05-06T12:46:38Z</time>
      </trkpt>
      <trkpt lat="50.36672" lon="2.78451">
        <ele>137.13</ele>
        <time>2016-05-06T12:46:52Z</time>
      </trkpt>
      <trkpt lat="50.36674" lon="2.78491">
        <ele>137.13</ele>
        <time>2016-05-06T12:47:10Z</time>
      </trkpt>
      <trkpt lat="50.36676" lon="2.78525">
        <ele>137.13</ele>
        <time>2016-05-06T12:47:27Z</time>
      </trkpt>
      <trkpt lat="50.36675" lon="2.78555">
        <ele>136.64</ele>
        <time>2016-05-06T12:47:40Z</time>
      </trkpt>
      <trkpt lat="50.36681" lon="2.78567">
        <ele>137.13</ele>
        <time>2016-05-06T12:47:52Z</time>
      </trkpt>
      <trkpt lat="50.36685" lon="2.78571">
        <ele>136.64</ele>
        <time>2016-05-06T12:48:09Z</time>
      </trkpt>
      <trkpt lat="50.36686" lon="2.78585">
        <ele>136.64</ele>
        <time>2016-05-06T12:48:24Z</time>
      </trkpt>
      <trkpt lat="50.36687" lon="2.78604">
        <ele>136.64</ele>
        <time>2016-05-06T12:48:35Z</time>
      </trkpt>
      <trkpt lat="50.36687" lon="2.78605">
        <ele>136.64</ele>
        <time>2016-05-06T12:48:36Z</time>
      </trkpt>
      <trkpt lat="50.36687" lon="2.78631">
        <ele>137.13</ele>
        <time>2016-05-06T12:48:50Z</time>
      </trkpt>
      <trkpt lat="50.36688" lon="2.78641">
        <ele>136.64</ele>
        <time>2016-05-06T12:48:54Z</time>
      </trkpt>
      <trkpt lat="50.36689" lon="2.78671">
        <ele>136.64</ele>
        <time>2016-05-06T12:49:08Z</time>
      </trkpt>
      <trkpt lat="50.36694" lon="2.78697">
        <ele>136.64</ele>
        <time>2016-05-06T12:49:21Z</time>
      </trkpt>
      <trkpt lat="50.36698" lon="2.78723">
        <ele>136.64</ele>
        <time>2016-05-06T12:49:32Z</time>
      </trkpt>
      <trkpt lat="50.36705" lon="2.78766">
        <ele>136.64</ele>
        <time>2016-05-06T12:49:49Z</time>
      </trkpt>
      <trkpt lat="50.36707" lon="2.7877">
        <ele>136.64</ele>
        <time>2016-05-06T12:49:51Z</time>
      </trkpt>
      <trkpt lat="50.36722" lon="2.78792">
        <ele>136.64</ele>
        <time>2016-05-06T12:50:04Z</time>
      </trkpt>
      <trkpt lat="50.36725" lon="2.78795">
        <ele>136.64</ele>
        <time>2016-05-06T12:50:06Z</time>
      </trkpt>
      <trkpt lat="50.36739" lon="2.78824">
        <ele>136.64</ele>
        <time>2016-05-06T12:50:22Z</time>
      </trkpt>
      <trkpt lat="50.36741" lon="2.78828">
        <ele>136.64</ele>
        <time>2016-05-06T12:50:24Z</time>
      </trkpt>
      <trkpt lat="50.36745" lon="2.78836">
        <ele>136.64</ele>
        <time>2016-05-06T12:50:28Z</time>
      </trkpt>
      <trkpt lat="50.36746" lon="2.78841">
        <ele>135.68</ele>
        <time>2016-05-06T12:50:30Z</time>
      </trkpt>
      <trkpt lat="50.36754" lon="2.78873">
        <ele>135.68</ele>
        <time>2016-05-06T12:50:44Z</time>
      </trkpt>
      <trkpt lat="50.36757" lon="2.78882">
        <ele>135.2</ele>
        <time>2016-05-06T12:50:48Z</time>
      </trkpt>
      <trkpt lat="50.36758" lon="2.78888">
        <ele>135.68</ele>
        <time>2016-05-06T12:50:51Z</time>
      </trkpt>
      <trkpt lat="50.36748" lon="2.78912">
        <ele>135.2</ele>
        <time>2016-05-06T12:51:04Z</time>
      </trkpt>
      <trkpt lat="50.36744" lon="2.78918">
        <ele>135.68</ele>
        <time>2016-05-06T12:51:17Z</time>
      </trkpt>
      <trkpt lat="50.36746" lon="2.78923">
        <ele>135.68</ele>
        <time>2016-05-06T12:51:36Z</time>
      </trkpt>
    </trkseg>
  </trk>
</gpx>